KBVO/BVO METAR and TAF weather

Enter ICAO airport designator
Station Type Date Time Source
KBVO METAR 2018/07/21 12:53 UTC NOAA

KBVO 211253Z AUTO 03003KT 10SM CLR 24/20 A2998 RMK AO2 SLP140 T02390200


Station Type Date Time Source
KBVO Decoded METAR 2018/07/21 12:53 UTC NOAA

BARTLESVILLE MUNICIPAL AIRPORT , OK, United States (KBVO) 36-46N 96-01W 210M
Jul 21, 2018 - 08:53 AM EDT / 2018.07.21 1253 UTC
Wind: from the NNE (030 degrees) at 3 MPH (3 KT):0
Visibility: 10 mile(s):0
Sky conditions: clear
Temperature: 75.0 F (23.9 C)
Dew Point: 68.0 F (20.0 C)
Relative Humidity: 78%
Pressure (altimeter): 29.98 in. Hg (1015 hPa)
ob: KBVO 211253Z AUTO 03003KT 10SM CLR 24/20 A2998 RMK AO2 SLP140 T02390200
cycle: 13

Station Type Date Time Source
KBVO TAF 2018/07/21 12:22 UTC NOAA

TAF KBVO 211120Z 2112/2212 00000KT P6SM SCT250
FM211500 05006KT P6SM SCT250
FM220000 00000KT P6SM SCT250


Example: see airport list